Flight Track Log - Related Links

Times and Time Zones

All times are in EDT time to prevent confusion due to time zone crossing. See the DAL3970 flight status page for this flight to view local times or setup timezone preferences in your user account.


Time Position Orientation Groundspeed Altitude Reporting Facility
EDT Latitude Longitude Course Direction KTS MPH feet Rate Location/Type
Tue 08:08:04 AM 44.7872 -89.7056 101° East 169 194 3,000  Level Minneapolis Center
Tue 08:09:05 AM 44.8386 -89.7014 North 197 227 5,100 1,721 Climbing Minneapolis Center
Tue 08:10:00 AM 44.7153 -89.2656 107° East  Level FlightAware Approximate
Tue 08:10:06 AM 44.8472 -89.6033 83° East 275 316 6,500  Level Minneapolis Center
Tue 08:11:00 AM 44.6872 -89.1348 107° East  Level FlightAware Approximate
Tue 08:11:08 AM 44.8211 -89.4892 108° East 292 336 9,000  Level Minneapolis Center
Tue 08:12:00 AM 44.6792 -89.0000 109° East  Level FlightAware Approximate
Tue 08:12:09 AM 44.7983 -89.3753 106° East 310 357 11,300  Level Minneapolis Center
Tue 08:13:00 AM 44.6482 -88.8706 101° East  Level FlightAware Approximate
Tue 08:13:10 AM 44.7706 -89.2369 106° East 348 400 12,600  Level Minneapolis Center
Tue 08:14:12 AM 44.7406 -89.0881 106° East 377 434 14,800 1,854 Climbing Minneapolis Center
Tue 08:15:13 AM 44.7100 -88.9433 106° East 386 444 16,400 1,623 Climbing Minneapolis Center
Tue 08:16:14 AM 44.6775 -88.7889 106° East 406 467 18,100 1,805 Climbing Minneapolis Center
Tue 08:17:16 AM 44.6472 -88.6356 105° East 407 468 20,100 1,659 Climbing Minneapolis Center
Tue 08:18:17 AM 44.6150 -88.4839 107° East 405 466 21,500 1,122 Climbing Minneapolis Center
Tue 08:19:19 AM 44.5814 -88.3269 107° East 416 479 22,400 878 Climbing Minneapolis Center
Tue 08:20:20 AM 44.5408 -88.1669 110° East 430 495 23,300 976 Climbing Minneapolis Center
Tue 08:21:22 AM 44.4572 -88.0039 126° Southeast 437 503 24,400 976 Climbing Minneapolis Center
Tue 08:22:23 AM 44.3847 -87.8633 126° Southeast 442 509 25,300 885 Climbing Minneapolis Center
Tue 08:23:24 AM 44.3106 -87.7200 126° Southeast 450 518 26,200 927 Climbing Minneapolis Center
Tue 08:24:26 AM 44.2344 -87.5731 126° Southeast 461 531 27,200 878 Climbing Minneapolis Center
Tue 08:25:27 AM 44.1581 -87.4292 126° Southeast 460 529 28,000 732 Climbing Minneapolis Center
Tue 08:26:29 AM 44.0803 -87.2811 126° Southeast 467 537 28,700 488 Climbing Minneapolis Center
Tue 08:27:30 AM 43.9989 -87.1267 126° Southeast 473 544 29,000 146 Climbing Minneapolis Center
Tue 08:28:32 AM 43.9178 -86.9739 126° Southeast 487 560 29,000  Level Minneapolis Center
Tue 08:29:33 AM 43.8333 -86.8153 126° Southeast 506 582 29,000  Level Minneapolis Center
Tue 08:30:35 AM 43.7486 -86.6564 126° Southeast 513 590 29,000  Level Minneapolis Center
Tue 08:31:36 AM 43.6656 -86.5028 127° Southeast 503 579 29,000  Level Minneapolis Center
Tue 08:32:38 AM 43.5878 -86.3572 126° Southeast 477 549 29,000  Level Minneapolis Center
Tue 08:33:39 AM 43.5092 -86.2128 127° Southeast 472 543 29,000  Level Minneapolis Center
Tue 08:33:54 AM 43.4772 -86.1556 128° Southeast 472 543 29,000  Level Chicago Center
Tue 08:34:56 AM 43.3972 -86.0083 127° Southeast 477 549 29,000  Level Chicago Center
Tue 08:35:58 AM 43.3553 -85.8275 108° East 496 571 29,000 -195 Level Chicago Center
Tue 08:36:59 AM 43.3231 -85.6439 104° East 493 567 28,600 -1,317 Descending Chicago Center
Tue 08:38:01 AM 43.2903 -85.4628 104° East 488 562 26,300 -2,226 Descending Chicago Center
Tue 08:39:03 AM 43.2611 -85.2989 104° East 447 514 24,000 -2,226 Descending Chicago Center
Tue 08:40:05 AM 43.2333 -85.1475 104° East 415 478 21,700 -2,032 Descending Chicago Center
Tue 08:41:07 AM 43.2069 -85.0017 104° East 400 460 19,800 -1,951 Descending Chicago Center
Tue 08:42:08 AM 43.1775 -84.8428 104° East 368 423 17,700 -1,561 Descending Chicago Center
Tue 08:43:10 AM 43.1542 -84.7181 104° East 347 399 16,600 -1,065 Descending Chicago Center
Tue 08:44:12 AM 43.1325 -84.5986 104° East 330 380 15,500 -871 Descending Chicago Center
Tue 08:45:14 AM 43.1106 -84.4825 104° East 320 368 14,800 -732 Descending Chicago Center
Tue 08:46:15 AM 43.0867 -84.3656 106° East 318 366 14,000 -780 Descending Chicago Center
Tue 08:47:17 AM 43.0647 -84.2500 105° East 317 365 13,200 -726 Descending Chicago Center
Tue 08:48:19 AM 43.0431 -84.1367 105° East 311 358 12,500 -608 Descending Chicago Center
Tue 08:48:36 AM 43.0258 -84.0964 120° Southeast 304 350 12,400 -545 Descending Cleveland Center
Tue 08:49:14 AM 42.9981 -84.0439 126° Southeast 300 345 12,000 -393 Descending Cleveland Center
Tue 08:49:37 AM 42.9783 -84.0058 125° Southeast 285 328 12,000 -100 Level Cleveland Center
Tue 08:50:14 AM 42.9506 -83.9589 129° Southeast 294 338 11,900 109 Descending Cleveland Center
Tue 08:50:32 AM 42.9347 -83.9267 124° Southeast 284 327 12,100 100 Climbing Cleveland Center
Tue 08:51:14 AM 42.9053 -83.8714 126° Southeast 287 330 12,000 -98 Descending Cleveland Center
Tue 08:51:33 AM 42.8875 -83.8364 125° Southeast 293 337 12,000  Level Cleveland Center
Tue 08:52:14 AM 42.8578 -83.7811 126° Southeast 287 330 12,000 90 Level Cleveland Center
Tue 08:52:40 AM 42.8317 -83.7400 131° Southeast 285 328 12,100 -200 Climbing Cleveland Center
Tue 08:53:14 AM 42.8011 -83.7158 150° Southeast 275 316 11,800 -1,258 Descending Cleveland Center
Tue 08:53:42 AM 42.7619 -83.6969 161° South 266 306 10,800 -1,900 Descending Cleveland Center
Tue 08:54:14 AM 42.7272 -83.6725 153° Southeast 264 304 9,900 -1,574 Descending Cleveland Center
Tue 08:54:43 AM 42.6986 -83.6542 155° Southeast 264 304 9,200 -800 Descending Cleveland Center
Tue 08:55:14 AM 42.6703 -83.6217 140° Southeast 259 298 9,100 -327 Descending Cleveland Center
Tue 08:55:38 AM 42.6503 -83.5869 128° Southeast 272 313 8,900 -1,100 Descending Cleveland Center
Tue 08:56:14 AM 42.6200 -83.5489 137° Southeast 259 298 8,000 -1,973 Descending Cleveland Center
Tue 08:56:51 AM 42.5794 -83.4989 138° Southeast 281 323 6,500 -1,800 Descending Cleveland Center
Tue 08:57:14 AM 42.5614 -83.4756 136° Southeast 274 315 6,200 -492 Descending Cleveland Center
Tue 08:57:52 AM 42.5250 -83.4286 136° Southeast 271 312 6,000 -100 Descending Cleveland Center
Tue 08:58:14 AM 42.5069 -83.4053 136° Southeast 280 322 6,100 -98 Climbing Cleveland Center
Tue 08:58:53 AM 42.4750 -83.3450 126° Southeast 241 277 5,900 -319 Descending Cleveland Center
Tue 08:59:48 AM 42.4428 -83.2928 130° Southeast 197 227 5,600 -738 Descending Cleveland Center
Tue 09:00:55 AM 42.3914 -83.2708 162° South 178 205 4,400 -984 Descending Cleveland Center
Tue 09:01:56 AM 42.3472 -83.2775 186° South 156 180 3,500 -934 Descending Cleveland Center
Tue 09:02:57 AM 42.3111 -83.3069 211° Southwest 156 180 2,500 -984 Descending Cleveland Center

Login

Don't have an account? Register now (free) for customized features, flight alerts, and more!